Current Weather Conditions: station 63114

sailwx.info

Wind from 190 at 7 knots

Air temperature 7.1° C
Visibility: greater than 27.0 NM
Dewpoint 3.0° C

Last reported at 2015-May-29 07:00 UTC.
Time now 2015-May-29 10:20 UTC

Location: N 61°18' E 001°42'.
View on Google Maps.

See reports from other nearby stations

  
Tides and Currents Weather Stations Pressure Air Temp Water Temp Dewpoint Dewpoint Depression Visibility Wind Speed Wind Dir Waves Ship Positions
date/time (UTC)wind fromknots sea level pressurealtimeterstation pressurevisibilityair tempwater tempwave heightnotes
2015-May-29 07:00 190 7 27.0 7.1
2015-May-29 05:00 210 8 27.0 7.2
2015-May-29 04:00 210 8 27.0 7.4
2015-May-29 03:00 210 8 27.0 7.2
2015-May-29 01:00 230 8 27.0 7.6
2015-May-28 22:00 250 11 27.0 7.5
2015-May-28 21:00 260 10 27.0 7.4
2015-May-28 17:00 260 9 27.0 7.8
2015-May-28 16:00 240 6 27.0 7.7
2015-May-28 14:00 240 3 27.0 7.8
2015-May-28 06:00 140 18 5.4 6.6
2015-May-28 05:00 150 15 5.4 6.7
2015-May-28 04:00 160 15 5.4 6.6
2015-May-28 01:00 180 12 5.4 7.0
2015-May-28 00:00 180 12 10.8 7.8
2015-May-27 23:00 200 19 5.4 7.6
2015-May-27 17:00 220 12 10.8 8.3
2015-May-27 16:00 250 16 10.8 7.8
2015-May-27 13:00 210 18 5.4 8.4
2015-May-27 12:00 210 19 5.4 8.1
2015-May-27 10:00 220 17 10.8 8.3